<?xml version='1.0' encoding='UTF-8'?><gpx version="1.1" creator="JPX - https://github.com/jenetics/jpx" xmlns="http://www.topografix.com/GPX/1/1"><trk><trkseg><trkpt lat="43.2242585" lon="12.8215303"><ele>1023.0</ele><time>2026-05-02T15:37:39.562Z</time></trkpt><trkpt lat="43.2242913" lon="12.8216047"><ele>1023.0</ele><time>2026-05-02T15:37:47.563Z</time></trkpt><trkpt lat="43.2243245" lon="12.8216873"><ele>1023.0</ele><time>2026-05-02T15:37:58.471Z</time></trkpt><trkpt lat="43.2243804" lon="12.8217332"><ele>1023.0</ele><time>2026-05-02T15:38:05.563Z</time></trkpt><trkpt lat="43.2244216" lon="12.8218032"><ele>1023.0</ele><time>2026-05-02T15:38:12.563Z</time></trkpt><trkpt lat="43.2244545" lon="12.821877"><ele>1023.0</ele><time>2026-05-02T15:38:19.563Z</time></trkpt><trkpt lat="43.224468" lon="12.8219722"><ele>1023.0</ele><time>2026-05-02T15:38:26.563Z</time></trkpt><trkpt lat="43.2244874" lon="12.8220569"><ele>1024.2857142857142</ele><time>2026-05-02T15:38:32.563Z</time></trkpt><trkpt lat="43.2245164" lon="12.8221422"><ele>1025.5714285714284</ele><time>2026-05-02T15:38:39.563Z</time></trkpt><trkpt lat="43.2245262" lon="12.8222411"><ele>1026.8571428571427</ele><time>2026-05-02T15:38:47.508Z</time></trkpt><trkpt lat="43.224564" lon="12.8223209"><ele>1028.142857142857</ele><time>2026-05-02T15:38:54.544Z</time></trkpt><trkpt lat="43.2245954" lon="12.8223982"><ele>1029.4285714285713</ele><time>2026-05-02T15:39:02.483Z</time></trkpt><trkpt lat="43.2245278" lon="12.8223833"><ele>1030.7142857142856</ele><time>2026-05-02T15:39:12.563Z</time></trkpt><trkpt lat="43.2245019" lon="12.8222883"><ele>1032.0</ele><time>2026-05-02T15:39:18.563Z</time></trkpt><trkpt lat="43.2244927" lon="12.8221986"><ele>1031.9999999999998</ele><time>2026-05-02T15:39:24.563Z</time></trkpt><trkpt lat="43.2244738" lon="12.8221132"><ele>1032.0</ele><time>2026-05-02T15:39:31.485Z</time></trkpt><trkpt lat="43.2244566" lon="12.822021"><ele>1032.0</ele><time>2026-05-02T15:39:39.562Z</time></trkpt><trkpt lat="43.2244006" lon="12.8219673"><ele>1032.0</ele><time>2026-05-02T15:39:46.483Z</time></trkpt><trkpt lat="43.2243734" lon="12.8218893"><ele>1032.0</ele><time>2026-05-02T15:39:53.51Z</time></trkpt><trkpt lat="43.2243426" lon="12.8218082"><ele>1031.9999999999998</ele><time>2026-05-02T15:40:01.563Z</time></trkpt><trkpt lat="43.2243084" lon="12.8217348"><ele>1032.0</ele><time>2026-05-02T15:40:10.544Z</time></trkpt><trkpt lat="43.2242751" lon="12.8216524"><ele>1030.7142857142856</ele><time>2026-05-02T15:40:19.563Z</time></trkpt><trkpt lat="43.224242" lon="12.8215746"><ele>1029.4285714285713</ele><time>2026-05-02T15:40:30.46Z</time></trkpt><trkpt lat="43.2242032" lon="12.8214986"><ele>1028.142857142857</ele><time>2026-05-02T15:40:38.562Z</time></trkpt><trkpt lat="43.2241617" lon="12.8214291"><ele>1026.8571428571427</ele><time>2026-05-02T15:40:48.562Z</time></trkpt><trkpt lat="43.224173" lon="12.8215219"><ele>1025.5714285714284</ele><time>2026-05-02T15:40:57.562Z</time></trkpt><trkpt lat="43.2242237" lon="12.8215818"><ele>1024.2857142857142</ele><time>2026-05-02T15:41:03.562Z</time></trkpt><trkpt lat="43.2242774" lon="12.8216301"><ele>1023.0</ele><time>2026-05-02T15:41:15.462Z</time></trkpt><trkpt lat="43.2243226" lon="12.8216937"><ele>1023.0</ele><time>2026-05-02T15:41:23.561Z</time></trkpt><trkpt lat="43.2243728" lon="12.8217625"><ele>1023.0</ele><time>2026-05-02T15:41:32.562Z</time></trkpt><trkpt lat="43.2244074" lon="12.821839"><ele>1023.0</ele><time>2026-05-02T15:41:40.562Z</time></trkpt><trkpt lat="43.2244727" lon="12.8218619"><ele>1023.0</ele><time>2026-05-02T15:41:51.562Z</time></trkpt><trkpt lat="43.2244994" lon="12.8219522"><ele>1023.0</ele><time>2026-05-02T15:42:01.561Z</time></trkpt><trkpt lat="43.2245115" lon="12.8220379"><ele>1023.0</ele><time>2026-05-02T15:42:08.542Z</time></trkpt><trkpt lat="43.2245426" lon="12.8221221"><ele>1023.0</ele><time>2026-05-02T15:42:17.562Z</time></trkpt><trkpt lat="43.2245468" lon="12.8222146"><ele>1024.2857142857142</ele><time>2026-05-02T15:42:23.561Z</time></trkpt><trkpt lat="43.224579" lon="12.8222932"><ele>1025.5714285714284</ele><time>2026-05-02T15:42:31.561Z</time></trkpt><trkpt lat="43.2246108" lon="12.8223855"><ele>1026.8571428571427</ele><time>2026-05-02T15:42:38.51Z</time></trkpt><trkpt lat="43.2246393" lon="12.8224631"><ele>1028.142857142857</ele><time>2026-05-02T15:42:44.562Z</time></trkpt><trkpt lat="43.2246734" lon="12.8225468"><ele>1029.4285714285713</ele><time>2026-05-02T15:42:51.512Z</time></trkpt><trkpt lat="43.2246869" lon="12.8226347"><ele>1030.7142857142856</ele><time>2026-05-02T15:42:58.562Z</time></trkpt><trkpt lat="43.2247087" lon="12.8227297"><ele>1032.0</ele><time>2026-05-02T15:43:05.562Z</time></trkpt><trkpt lat="43.2247401" lon="12.822806"><ele>1033.142857142857</ele><time>2026-05-02T15:43:12.562Z</time></trkpt><trkpt lat="43.2247914" lon="12.8228693"><ele>1034.2857142857142</ele><time>2026-05-02T15:43:20.562Z</time></trkpt><trkpt lat="43.2248125" lon="12.8229595"><ele>1035.4285714285716</ele><time>2026-05-02T15:43:29.562Z</time></trkpt><trkpt lat="43.2248569" lon="12.8230356"><ele>1036.5714285714284</ele><time>2026-05-02T15:43:36.562Z</time></trkpt><trkpt lat="43.2248781" lon="12.8231263"><ele>1037.7142857142858</ele><time>2026-05-02T15:43:45.56Z</time></trkpt><trkpt lat="43.2249114" lon="12.8232002"><ele>1038.857142857143</ele><time>2026-05-02T15:43:53.561Z</time></trkpt><trkpt lat="43.2249576" lon="12.8232743"><ele>1040.0</ele><time>2026-05-02T15:44:01.561Z</time></trkpt><trkpt lat="43.2249952" lon="12.8233593"><ele>1032.1428571428573</ele><time>2026-05-02T15:44:09.51Z</time></trkpt><trkpt lat="43.2250171" lon="12.8234461"><ele>1024.2857142857142</ele><time>2026-05-02T15:44:18.562Z</time></trkpt><trkpt lat="43.2250428" lon="12.8235339"><ele>1016.4285714285716</ele><time>2026-05-02T15:44:26.562Z</time></trkpt><trkpt lat="43.2250712" lon="12.8236116"><ele>1008.5714285714287</ele><time>2026-05-02T15:44:33.504Z</time></trkpt><trkpt lat="43.2250978" lon="12.8236925"><ele>1000.7142857142858</ele><time>2026-05-02T15:44:41.561Z</time></trkpt><trkpt lat="43.2251117" lon="12.8237801"><ele>992.8571428571429</ele><time>2026-05-02T15:44:49.562Z</time></trkpt><trkpt lat="43.2251153" lon="12.8238705"><ele>985.0</ele><time>2026-05-02T15:44:56.562Z</time></trkpt><trkpt lat="43.2251348" lon="12.8239611"><ele>985.0</ele><time>2026-05-02T15:45:03.562Z</time></trkpt><trkpt lat="43.2251736" lon="12.8240341"><ele>985.0000000000001</ele><time>2026-05-02T15:45:11.562Z</time></trkpt><trkpt lat="43.2251858" lon="12.8241253"><ele>985.0</ele><time>2026-05-02T15:45:18.56Z</time></trkpt><trkpt lat="43.2252189" lon="12.8242127"><ele>985.0</ele><time>2026-05-02T15:45:25.561Z</time></trkpt><trkpt lat="43.2252561" lon="12.824289"><ele>985.0000000000001</ele><time>2026-05-02T15:45:32.562Z</time></trkpt><trkpt lat="43.225291" lon="12.8243753"><ele>985.0</ele><time>2026-05-02T15:45:42.545Z</time></trkpt><trkpt lat="43.2252975" lon="12.8244697"><ele>985.0</ele><time>2026-05-02T15:45:52.468Z</time></trkpt><trkpt lat="43.2253065" lon="12.8245629"><ele>985.4285714285714</ele><time>2026-05-02T15:45:59.562Z</time></trkpt><trkpt lat="43.2253138" lon="12.8246529"><ele>985.8571428571429</ele><time>2026-05-02T15:46:06.562Z</time></trkpt><trkpt lat="43.2253243" lon="12.8247381"><ele>986.2857142857143</ele><time>2026-05-02T15:46:13.561Z</time></trkpt><trkpt lat="43.225343" lon="12.8248344"><ele>986.7142857142858</ele><time>2026-05-02T15:46:20.562Z</time></trkpt><trkpt lat="43.2253412" lon="12.8249211"><ele>987.1428571428571</ele><time>2026-05-02T15:46:27.562Z</time></trkpt><trkpt lat="43.2253374" lon="12.8250139"><ele>987.5714285714287</ele><time>2026-05-02T15:46:34.561Z</time></trkpt><trkpt lat="43.2253257" lon="12.8251084"><ele>988.0</ele><time>2026-05-02T15:46:41.525Z</time></trkpt><trkpt lat="43.2253387" lon="12.8251993"><ele>988.0</ele><time>2026-05-02T15:46:51.562Z</time></trkpt><trkpt lat="43.2253439" lon="12.8252944"><ele>988.0</ele><time>2026-05-02T15:47:01.562Z</time></trkpt><trkpt lat="43.2253046" lon="12.8253738"><ele>988.0</ele><time>2026-05-02T15:47:08.562Z</time></trkpt><trkpt lat="43.2253007" lon="12.8254623"><ele>988.0</ele><time>2026-05-02T15:47:15.487Z</time></trkpt><trkpt lat="43.2253039" lon="12.8255523"><ele>988.0</ele><time>2026-05-02T15:47:24.562Z</time></trkpt><trkpt lat="43.225301" lon="12.8256427"><ele>988.0</ele><time>2026-05-02T15:47:31.561Z</time></trkpt><trkpt lat="43.2253055" lon="12.8257373"><ele>988.0</ele><time>2026-05-02T15:47:37.561Z</time></trkpt><trkpt lat="43.2253166" lon="12.8258229"><ele>988.0</ele><time>2026-05-02T15:47:44.562Z</time></trkpt><trkpt lat="43.2253355" lon="12.8259088"><ele>988.0</ele><time>2026-05-02T15:47:51.562Z</time></trkpt><trkpt lat="43.2253639" lon="12.8259886"><ele>988.0</ele><time>2026-05-02T15:47:58.562Z</time></trkpt><trkpt lat="43.2253822" lon="12.8260802"><ele>988.0</ele><time>2026-05-02T15:48:06.562Z</time></trkpt><trkpt lat="43.2254028" lon="12.8261667"><ele>988.0</ele><time>2026-05-02T15:48:14.485Z</time></trkpt><trkpt lat="43.2253958" lon="12.8262648"><ele>988.0</ele><time>2026-05-02T15:48:21.563Z</time></trkpt><trkpt lat="43.2253702" lon="12.8263489"><ele>988.0</ele><time>2026-05-02T15:48:27.561Z</time></trkpt><trkpt lat="43.2253493" lon="12.8264348"><ele>988.4285714285714</ele><time>2026-05-02T15:48:34.562Z</time></trkpt><trkpt lat="43.225323" lon="12.8265142"><ele>988.8571428571429</ele><time>2026-05-02T15:48:42.561Z</time></trkpt><trkpt lat="43.2253327" lon="12.8266022"><ele>989.2857142857143</ele><time>2026-05-02T15:48:50.562Z</time></trkpt><trkpt lat="43.2253667" lon="12.826676"><ele>989.7142857142858</ele><time>2026-05-02T15:48:57.562Z</time></trkpt><trkpt lat="43.2254146" lon="12.8267453"><ele>990.1428571428571</ele><time>2026-05-02T15:49:06.561Z</time></trkpt><trkpt lat="43.2254753" lon="12.8267981"><ele>990.5714285714287</ele><time>2026-05-02T15:49:14.562Z</time></trkpt><trkpt lat="43.2255328" lon="12.8268459"><ele>991.0000000000001</ele><time>2026-05-02T15:49:50.561Z</time></trkpt><trkpt lat="43.2255951" lon="12.8268593"><ele>990.4285714285716</ele><time>2026-05-02T15:50:33.562Z</time></trkpt><trkpt lat="43.2256622" lon="12.826889"><ele>989.8571428571429</ele><time>2026-05-02T15:50:40.562Z</time></trkpt><trkpt lat="43.2257" lon="12.8268107"><ele>989.2857142857143</ele><time>2026-05-02T15:51:24.561Z</time></trkpt><trkpt lat="43.225717" lon="12.826727"><ele>988.7142857142858</ele><time>2026-05-02T15:51:31.562Z</time></trkpt><trkpt lat="43.2257547" lon="12.8266472"><ele>988.1428571428571</ele><time>2026-05-02T15:51:39.561Z</time></trkpt><trkpt lat="43.2257655" lon="12.8265561"><ele>987.5714285714286</ele><time>2026-05-02T15:51:52.562Z</time></trkpt><trkpt lat="43.2257836" lon="12.8264584"><ele>987.0</ele><time>2026-05-02T15:52:04.562Z</time></trkpt><trkpt lat="43.2257687" lon="12.8263701"><ele>983.8571428571429</ele><time>2026-05-02T15:52:17.562Z</time></trkpt><trkpt lat="43.225803" lon="12.8262847"><ele>980.7142857142858</ele><time>2026-05-02T15:52:27.562Z</time></trkpt><trkpt lat="43.2258348" lon="12.8261991"><ele>977.5714285714286</ele><time>2026-05-02T15:52:34.562Z</time></trkpt><trkpt lat="43.2258387" lon="12.8261074"><ele>974.4285714285714</ele><time>2026-05-02T15:53:02.562Z</time></trkpt><trkpt lat="43.2258191" lon="12.8260158"><ele>971.2857142857143</ele><time>2026-05-02T15:53:12.561Z</time></trkpt><trkpt lat="43.2258373" lon="12.8259308"><ele>968.1428571428571</ele><time>2026-05-02T15:53:22.56Z</time></trkpt><trkpt lat="43.225852" lon="12.825846"><ele>965.0</ele><time>2026-05-02T15:53:27.562Z</time></trkpt><trkpt lat="43.22586" lon="12.8257539"><ele>962.5714285714286</ele><time>2026-05-02T15:53:35.562Z</time></trkpt><trkpt lat="43.2258325" lon="12.8256683"><ele>960.1428571428571</ele><time>2026-05-02T15:53:44.562Z</time></trkpt><trkpt lat="43.2258546" lon="12.8255825"><ele>957.7142857142857</ele><time>2026-05-02T15:53:53.562Z</time></trkpt><trkpt lat="43.225791" lon="12.825544"><ele>955.2857142857142</ele><time>2026-05-02T15:54:02.561Z</time></trkpt><trkpt lat="43.2258388" lon="12.8254843"><ele>952.8571428571429</ele><time>2026-05-02T15:54:11.562Z</time></trkpt><trkpt lat="43.2258878" lon="12.8254232"><ele>950.4285714285713</ele><time>2026-05-02T15:54:17.562Z</time></trkpt><trkpt lat="43.2258468" lon="12.8253534"><ele>947.9999999999999</ele><time>2026-05-02T15:54:32.341Z</time></trkpt><trkpt lat="43.2258919" lon="12.8252834"><ele>948.0</ele><time>2026-05-02T15:54:43.562Z</time></trkpt><trkpt lat="43.2258405" lon="12.8252199"><ele>948.0</ele><time>2026-05-02T15:55:00.49Z</time></trkpt><trkpt lat="43.2258962" lon="12.8251767"><ele>948.0</ele><time>2026-05-02T15:55:09.562Z</time></trkpt><trkpt lat="43.2259047" lon="12.825087"><ele>948.0</ele><time>2026-05-02T15:55:42.562Z</time></trkpt><trkpt lat="43.2259638" lon="12.8250056"><ele>948.0</ele><time>2026-05-02T15:56:07.562Z</time></trkpt><trkpt lat="43.2259054" lon="12.8249548"><ele>948.0</ele><time>2026-05-02T15:56:20.561Z</time></trkpt><trkpt lat="43.2259798" lon="12.8248604"><ele>946.7142857142856</ele><time>2026-05-02T15:56:23.569Z</time></trkpt><trkpt lat="43.2260347" lon="12.824807"><ele>945.4285714285713</ele><time>2026-05-02T15:56:25.561Z</time></trkpt><trkpt lat="43.2260876" lon="12.8247443"><ele>944.1428571428571</ele><time>2026-05-02T15:56:42.481Z</time></trkpt><trkpt lat="43.2261097" lon="12.8246533"><ele>942.8571428571428</ele><time>2026-05-02T15:56:51.562Z</time></trkpt><trkpt lat="43.2261258" lon="12.8245567"><ele>941.5714285714284</ele><time>2026-05-02T15:56:57.562Z</time></trkpt><trkpt lat="43.2261396" lon="12.8244699"><ele>940.2857142857143</ele><time>2026-05-02T15:57:03.542Z</time></trkpt><trkpt lat="43.2261302" lon="12.8243827"><ele>939.0</ele><time>2026-05-02T15:57:10.518Z</time></trkpt><trkpt lat="43.2261338" lon="12.8242881"><ele>938.5714285714287</ele><time>2026-05-02T15:57:18.562Z</time></trkpt><trkpt lat="43.2261442" lon="12.8241941"><ele>938.1428571428571</ele><time>2026-05-02T15:57:28.545Z</time></trkpt><trkpt lat="43.2261386" lon="12.8241012"><ele>937.7142857142858</ele><time>2026-05-02T15:57:37.561Z</time></trkpt><trkpt lat="43.2261435" lon="12.824011"><ele>937.2857142857143</ele><time>2026-05-02T15:57:44.562Z</time></trkpt><trkpt lat="43.2261371" lon="12.8239215"><ele>936.8571428571429</ele><time>2026-05-02T15:57:52.561Z</time></trkpt><trkpt lat="43.2261523" lon="12.8238279"><ele>936.4285714285714</ele><time>2026-05-02T15:58:00.561Z</time></trkpt><trkpt lat="43.226152" lon="12.8237354"><ele>936.0</ele><time>2026-05-02T15:58:08.562Z</time></trkpt><trkpt lat="43.2261764" lon="12.8236493"><ele>936.0</ele><time>2026-05-02T15:58:17.561Z</time></trkpt><trkpt lat="43.2261853" lon="12.8235576"><ele>936.0000000000001</ele><time>2026-05-02T15:58:27.561Z</time></trkpt><trkpt lat="43.226196" lon="12.8234706"><ele>936.0</ele><time>2026-05-02T15:59:07.562Z</time></trkpt><trkpt lat="43.2262065" lon="12.8233826"><ele>936.0</ele><time>2026-05-02T15:59:13.561Z</time></trkpt><trkpt lat="43.2261916" lon="12.823285"><ele>936.0000000000001</ele><time>2026-05-02T15:59:51.56Z</time></trkpt><trkpt lat="43.2262153" lon="12.8231897"><ele>936.0</ele><time>2026-05-02T15:59:58.56Z</time></trkpt><trkpt lat="43.2262359" lon="12.8231076"><ele>936.0</ele><time>2026-05-02T16:00:06.561Z</time></trkpt><trkpt lat="43.226234" lon="12.8230186"><ele>934.7142857142858</ele><time>2026-05-02T16:00:13.56Z</time></trkpt><trkpt lat="43.2262798" lon="12.8229452"><ele>933.4285714285716</ele><time>2026-05-02T16:00:25.562Z</time></trkpt><trkpt lat="43.2262719" lon="12.8228548"><ele>932.1428571428571</ele><time>2026-05-02T16:00:31.561Z</time></trkpt><trkpt lat="43.2262794" lon="12.8227641"><ele>930.8571428571429</ele><time>2026-05-02T16:00:39.561Z</time></trkpt><trkpt lat="43.2262913" lon="12.8226729"><ele>929.5714285714286</ele><time>2026-05-02T16:00:47.561Z</time></trkpt><trkpt lat="43.2263125" lon="12.8225891"><ele>928.2857142857142</ele><time>2026-05-02T16:00:55.561Z</time></trkpt><trkpt lat="43.2263173" lon="12.8225014"><ele>926.9999999999999</ele><time>2026-05-02T16:01:02.56Z</time></trkpt><trkpt lat="43.2263332" lon="12.822411"><ele>925.7142857142856</ele><time>2026-05-02T16:01:11.561Z</time></trkpt><trkpt lat="43.2263558" lon="12.8223297"><ele>924.4285714285713</ele><time>2026-05-02T16:01:21.543Z</time></trkpt><trkpt lat="43.226375" lon="12.8222406"><ele>923.1428571428571</ele><time>2026-05-02T16:01:28.526Z</time></trkpt><trkpt lat="43.2263615" lon="12.8221459"><ele>921.8571428571428</ele><time>2026-05-02T16:01:36.56Z</time></trkpt><trkpt lat="43.2263709" lon="12.8220586"><ele>920.5714285714284</ele><time>2026-05-02T16:02:00.561Z</time></trkpt><trkpt lat="43.2263361" lon="12.8219815"><ele>919.2857142857143</ele><time>2026-05-02T16:02:08.56Z</time></trkpt><trkpt lat="43.2263402" lon="12.8218931"><ele>918.0</ele><time>2026-05-02T16:02:33.561Z</time></trkpt><trkpt lat="43.2263075" lon="12.8218046"><ele>916.8571428571429</ele><time>2026-05-02T16:02:43.56Z</time></trkpt><trkpt lat="43.2262479" lon="12.8217696"><ele>915.7142857142857</ele><time>2026-05-02T16:02:48.495Z</time></trkpt><trkpt lat="43.2262386" lon="12.8216689"><ele>914.5714285714286</ele><time>2026-05-02T16:02:54.56Z</time></trkpt><trkpt lat="43.2262487" lon="12.8215809"><ele>913.4285714285714</ele><time>2026-05-02T16:03:00.561Z</time></trkpt><trkpt lat="43.226298" lon="12.8215017"><ele>912.2857142857142</ele><time>2026-05-02T16:03:08.561Z</time></trkpt><trkpt lat="43.226327" lon="12.8214224"><ele>911.1428571428571</ele><time>2026-05-02T16:03:15.561Z</time></trkpt><trkpt lat="43.2263217" lon="12.8213282"><ele>910.0</ele><time>2026-05-02T16:03:22.56Z</time></trkpt><trkpt lat="43.2263235" lon="12.8212348"><ele>910.0</ele><time>2026-05-02T16:03:31.561Z</time></trkpt><trkpt lat="43.2263171" lon="12.8211483"><ele>910.0</ele><time>2026-05-02T16:03:39.522Z</time></trkpt><trkpt lat="43.2262928" lon="12.8210625"><ele>910.0</ele><time>2026-05-02T16:03:48.561Z</time></trkpt><trkpt lat="43.2262774" lon="12.8209725"><ele>910.0</ele><time>2026-05-02T16:03:57.561Z</time></trkpt><trkpt lat="43.2262971" lon="12.8208783"><ele>910.0</ele><time>2026-05-02T16:04:05.56Z</time></trkpt><trkpt lat="43.2263051" lon="12.8207894"><ele>910.0</ele><time>2026-05-02T16:04:14.561Z</time></trkpt><trkpt lat="43.22631" lon="12.8207023"><ele>910.0</ele><time>2026-05-02T16:04:24.56Z</time></trkpt><trkpt lat="43.2263358" lon="12.8206171"><ele>909.1428571428571</ele><time>2026-05-02T16:04:29.561Z</time></trkpt><trkpt lat="43.2263707" lon="12.820541"><ele>908.2857142857142</ele><time>2026-05-02T16:04:40.56Z</time></trkpt><trkpt lat="43.226372" lon="12.8204487"><ele>907.4285714285714</ele><time>2026-05-02T16:04:50.56Z</time></trkpt><trkpt lat="43.2263177" lon="12.8203821"><ele>906.5714285714286</ele><time>2026-05-02T16:04:57.56Z</time></trkpt><trkpt lat="43.226275" lon="12.8203064"><ele>905.7142857142857</ele><time>2026-05-02T16:05:05.56Z</time></trkpt><trkpt lat="43.2262207" lon="12.8202418"><ele>904.8571428571429</ele><time>2026-05-02T16:05:24.546Z</time></trkpt><trkpt lat="43.2262738" lon="12.8201832"><ele>904.0</ele><time>2026-05-02T16:05:37.561Z</time></trkpt><trkpt lat="43.2263292" lon="12.8201316"><ele>903.2857142857143</ele><time>2026-05-02T16:05:47.561Z</time></trkpt><trkpt lat="43.2263813" lon="12.8200687"><ele>902.5714285714284</ele><time>2026-05-02T16:05:55.56Z</time></trkpt><trkpt lat="43.226415" lon="12.8199869"><ele>901.8571428571428</ele><time>2026-05-02T16:06:03.56Z</time></trkpt><trkpt lat="43.2264228" lon="12.8199001"><ele>901.1428571428571</ele><time>2026-05-02T16:06:11.561Z</time></trkpt><trkpt lat="43.2264633" lon="12.8198258"><ele>900.4285714285713</ele><time>2026-05-02T16:06:18.561Z</time></trkpt><trkpt lat="43.2265268" lon="12.8198016"><ele>899.7142857142856</ele><time>2026-05-02T16:06:32.561Z</time></trkpt><trkpt lat="43.226545" lon="12.8197103"><ele>898.9999999999999</ele><time>2026-05-02T16:06:38.561Z</time></trkpt><trkpt lat="43.2264835" lon="12.819682"><ele>898.9999999999999</ele><time>2026-05-02T16:06:45.56Z</time></trkpt><trkpt lat="43.2264287" lon="12.8196233"><ele>899.0</ele><time>2026-05-02T16:06:52.561Z</time></trkpt><trkpt lat="43.2263881" lon="12.819541"><ele>898.9999999999999</ele><time>2026-05-02T16:07:08.542Z</time></trkpt><trkpt lat="43.2263687" lon="12.8194492"><ele>898.9999999999999</ele><time>2026-05-02T16:07:13.561Z</time></trkpt><trkpt lat="43.2263751" lon="12.8193486"><ele>899.0</ele><time>2026-05-02T16:07:20.561Z</time></trkpt><trkpt lat="43.2263866" lon="12.8192615"><ele>898.9999999999999</ele><time>2026-05-02T16:07:27.56Z</time></trkpt><trkpt lat="43.2264445" lon="12.8192239"><ele>898.9999999999999</ele><time>2026-05-02T16:07:39.561Z</time></trkpt><trkpt lat="43.2265185" lon="12.8192236"><ele>893.8571428571428</ele><time>2026-05-02T16:07:49.56Z</time></trkpt><trkpt lat="43.2265719" lon="12.8191771"><ele>888.7142857142857</ele><time>2026-05-02T16:07:56.559Z</time></trkpt><trkpt lat="43.2266103" lon="12.8191064"><ele>883.5714285714286</ele><time>2026-05-02T16:08:06.502Z</time></trkpt><trkpt lat="43.2266111" lon="12.8190007"><ele>878.4285714285713</ele><time>2026-05-02T16:08:16.561Z</time></trkpt><trkpt lat="43.2266405" lon="12.8189106"><ele>873.2857142857142</ele><time>2026-05-02T16:08:24.561Z</time></trkpt><trkpt lat="43.226701" lon="12.8188617"><ele>868.1428571428572</ele><time>2026-05-02T16:08:30.561Z</time></trkpt><trkpt lat="43.2266659" lon="12.8187855"><ele>863.0</ele><time>2026-05-02T16:08:42.561Z</time></trkpt><trkpt lat="43.2266163" lon="12.8187248"><ele>863.0000000000001</ele><time>2026-05-02T16:08:49.561Z</time></trkpt><trkpt lat="43.2265482" lon="12.8186938"><ele>863.0</ele><time>2026-05-02T16:09:03.509Z</time></trkpt><trkpt lat="43.2265149" lon="12.8186035"><ele>863.0</ele><time>2026-05-02T16:09:08.561Z</time></trkpt><trkpt lat="43.226505" lon="12.8185008"><ele>863.0</ele><time>2026-05-02T16:09:18.561Z</time></trkpt><trkpt lat="43.2265038" lon="12.8184063"><ele>863.0</ele><time>2026-05-02T16:09:26.56Z</time></trkpt><trkpt lat="43.2265004" lon="12.818313"><ele>863.0000000000001</ele><time>2026-05-02T16:09:34.561Z</time></trkpt><trkpt lat="43.2265054" lon="12.8182258"><ele>863.0</ele><time>2026-05-02T16:09:41.561Z</time></trkpt><trkpt lat="43.2265124" lon="12.818132"><ele>861.1428571428572</ele><time>2026-05-02T16:09:50.561Z</time></trkpt><trkpt lat="43.2265561" lon="12.818064"><ele>859.2857142857143</ele><time>2026-05-02T16:10:11.561Z</time></trkpt><trkpt lat="43.2265313" lon="12.8179824"><ele>857.4285714285714</ele><time>2026-05-02T16:10:22.56Z</time></trkpt><trkpt lat="43.2264695" lon="12.8179451"><ele>855.5714285714287</ele><time>2026-05-02T16:10:30.56Z</time></trkpt><trkpt lat="43.2265334" lon="12.8179409"><ele>853.7142857142857</ele><time>2026-05-02T16:10:41.561Z</time></trkpt><trkpt lat="43.2266005" lon="12.8179624"><ele>851.8571428571429</ele><time>2026-05-02T16:10:56.517Z</time></trkpt><trkpt lat="43.2266586" lon="12.8179062"><ele>850.0</ele><time>2026-05-02T16:11:04.56Z</time></trkpt><trkpt lat="43.2267046" lon="12.8178365"><ele>850.0</ele><time>2026-05-02T16:11:12.56Z</time></trkpt><trkpt lat="43.2267537" lon="12.8177733"><ele>850.0</ele><time>2026-05-02T16:11:19.559Z</time></trkpt><trkpt lat="43.2267831" lon="12.8176897"><ele>850.0</ele><time>2026-05-02T16:11:28.56Z</time></trkpt><trkpt lat="43.2267692" lon="12.8175993"><ele>850.0</ele><time>2026-05-02T16:11:46.561Z</time></trkpt><trkpt lat="43.2268007" lon="12.817524"><ele>850.0</ele><time>2026-05-02T16:11:57.56Z</time></trkpt><trkpt lat="43.2268611" lon="12.8174766"><ele>850.0</ele><time>2026-05-02T16:12:07.559Z</time></trkpt><trkpt lat="43.226887" lon="12.8173898"><ele>850.0</ele><time>2026-05-02T16:12:12.56Z</time></trkpt><trkpt lat="43.2268756" lon="12.8172928"><ele>847.4285714285714</ele><time>2026-05-02T16:12:18.56Z</time></trkpt><trkpt lat="43.2269094" lon="12.8172071"><ele>844.8571428571429</ele><time>2026-05-02T16:12:26.56Z</time></trkpt><trkpt lat="43.2268655" lon="12.8171336"><ele>842.2857142857142</ele><time>2026-05-02T16:12:36.561Z</time></trkpt><trkpt lat="43.2268502" lon="12.8170477"><ele>839.7142857142858</ele><time>2026-05-02T16:12:42.561Z</time></trkpt><trkpt lat="43.2268788" lon="12.8169692"><ele>837.1428571428572</ele><time>2026-05-02T16:12:51.561Z</time></trkpt><trkpt lat="43.2268797" lon="12.8168774"><ele>834.5714285714286</ele><time>2026-05-02T16:12:58.561Z</time></trkpt><trkpt lat="43.2268359" lon="12.8168061"><ele>832.0</ele><time>2026-05-02T16:13:05.553Z</time></trkpt><trkpt lat="43.2268151" lon="12.8167145"><ele>830.4285714285714</ele><time>2026-05-02T16:13:16.561Z</time></trkpt><trkpt lat="43.2267786" lon="12.8166408"><ele>828.8571428571429</ele><time>2026-05-02T16:13:25.466Z</time></trkpt><trkpt lat="43.2267279" lon="12.8165762"><ele>827.2857142857143</ele><time>2026-05-02T16:13:34.559Z</time></trkpt><trkpt lat="43.2267519" lon="12.8164809"><ele>825.7142857142858</ele><time>2026-05-02T16:13:43.561Z</time></trkpt><trkpt lat="43.2267265" lon="12.8163904"><ele>824.1428571428571</ele><time>2026-05-02T16:14:01.559Z</time></trkpt><trkpt lat="43.2267123" lon="12.8162946"><ele>822.5714285714287</ele><time>2026-05-02T16:14:12.561Z</time></trkpt><trkpt lat="43.2267629" lon="12.8162358"><ele>821.0</ele><time>2026-05-02T16:14:20.561Z</time></trkpt><trkpt lat="43.2267517" lon="12.8161376"><ele>821.0000000000001</ele><time>2026-05-02T16:14:27.561Z</time></trkpt><trkpt lat="43.2267295" lon="12.8160531"><ele>821.0</ele><time>2026-05-02T16:14:36.51Z</time></trkpt><trkpt lat="43.2267722" lon="12.81598"><ele>821.0</ele><time>2026-05-02T16:14:49.548Z</time></trkpt><trkpt lat="43.2267476" lon="12.8158872"><ele>821.0</ele><time>2026-05-02T16:15:18.561Z</time></trkpt><trkpt lat="43.2266985" lon="12.8158259"><ele>821.0</ele><time>2026-05-02T16:15:22.561Z</time></trkpt><trkpt lat="43.2266301" lon="12.815801"><ele>821.0000000000001</ele><time>2026-05-02T16:15:28.468Z</time></trkpt><trkpt lat="43.2266247" lon="12.8157019"><ele>821.0</ele><time>2026-05-02T16:15:39.56Z</time></trkpt><trkpt lat="43.2265989" lon="12.8156113"><ele>820.7142857142858</ele><time>2026-05-02T16:15:44.516Z</time></trkpt><trkpt lat="43.2265771" lon="12.8155184"><ele>820.4285714285714</ele><time>2026-05-02T16:15:50.561Z</time></trkpt><trkpt lat="43.226531" lon="12.8154583"><ele>820.1428571428571</ele><time>2026-05-02T16:16:06.561Z</time></trkpt><trkpt lat="43.2265167" lon="12.8153674"><ele>819.8571428571429</ele><time>2026-05-02T16:16:12.561Z</time></trkpt><trkpt lat="43.2264814" lon="12.8152857"><ele>819.5714285714286</ele><time>2026-05-02T16:16:18.569Z</time></trkpt><trkpt lat="43.2264385" lon="12.8152064"><ele>819.2857142857143</ele><time>2026-05-02T16:16:31.56Z</time></trkpt><trkpt lat="43.2263995" lon="12.8151348"><ele>819.0</ele><time>2026-05-02T16:16:38.56Z</time></trkpt><trkpt lat="43.2263537" lon="12.8150694"><ele>818.7142857142857</ele><time>2026-05-02T16:16:42.56Z</time></trkpt><trkpt lat="43.2263364" lon="12.8149775"><ele>818.4285714285714</ele><time>2026-05-02T16:16:52.561Z</time></trkpt><trkpt lat="43.2263003" lon="12.8148705"><ele>818.1428571428571</ele><time>2026-05-02T16:16:58.561Z</time></trkpt><trkpt lat="43.2262875" lon="12.8147835"><ele>817.8571428571429</ele><time>2026-05-02T16:17:02.561Z</time></trkpt><trkpt lat="43.226323" lon="12.8147073"><ele>817.5714285714286</ele><time>2026-05-02T16:17:08.561Z</time></trkpt><trkpt lat="43.2263018" lon="12.8146171"><ele>817.2857142857142</ele><time>2026-05-02T16:17:15.561Z</time></trkpt><trkpt lat="43.2262469" lon="12.8145683"><ele>817.0</ele><time>2026-05-02T16:17:20.56Z</time></trkpt><trkpt lat="43.2261899" lon="12.8145078"><ele>816.9999999999999</ele><time>2026-05-02T16:17:28.561Z</time></trkpt><trkpt lat="43.2261374" lon="12.8144366"><ele>817.0</ele><time>2026-05-02T16:17:35.561Z</time></trkpt><trkpt lat="43.2261244" lon="12.8143447"><ele>817.0</ele><time>2026-05-02T16:17:42.567Z</time></trkpt><trkpt lat="43.2261294" lon="12.8142504"><ele>817.0</ele><time>2026-05-02T16:17:48.561Z</time></trkpt><trkpt lat="43.2261631" lon="12.8141665"><ele>817.0</ele><time>2026-05-02T16:17:54.554Z</time></trkpt><trkpt lat="43.2262337" lon="12.8141376"><ele>816.9999999999999</ele><time>2026-05-02T16:18:02.56Z</time></trkpt><trkpt lat="43.2263011" lon="12.8141441"><ele>817.0</ele><time>2026-05-02T16:18:09.56Z</time></trkpt><trkpt lat="43.2263639" lon="12.8141549"><ele>818.5714285714286</ele><time>2026-05-02T16:18:15.561Z</time></trkpt><trkpt lat="43.2264331" lon="12.814128"><ele>820.1428571428571</ele><time>2026-05-02T16:18:21.56Z</time></trkpt><trkpt lat="43.2264639" lon="12.8140521"><ele>821.7142857142858</ele><time>2026-05-02T16:18:27.561Z</time></trkpt><trkpt lat="43.2265022" lon="12.8139805"><ele>823.2857142857142</ele><time>2026-05-02T16:18:34.561Z</time></trkpt><trkpt lat="43.2265403" lon="12.8139009"><ele>824.8571428571429</ele><time>2026-05-02T16:18:40.51Z</time></trkpt><trkpt lat="43.226578" lon="12.8138237"><ele>826.4285714285714</ele><time>2026-05-02T16:18:51.494Z</time></trkpt><trkpt lat="43.2266134" lon="12.8137515"><ele>828.0</ele><time>2026-05-02T16:18:56.467Z</time></trkpt><trkpt lat="43.2266466" lon="12.8136738"><ele>823.8571428571429</ele><time>2026-05-02T16:19:02.56Z</time></trkpt><trkpt lat="43.2266703" lon="12.8135828"><ele>819.7142857142858</ele><time>2026-05-02T16:19:09.561Z</time></trkpt><trkpt lat="43.2267211" lon="12.813516"><ele>815.5714285714287</ele><time>2026-05-02T16:19:15.56Z</time></trkpt><trkpt lat="43.2267885" lon="12.813485"><ele>811.4285714285714</ele><time>2026-05-02T16:19:22.561Z</time></trkpt><trkpt lat="43.2268516" lon="12.8134749"><ele>807.2857142857142</ele><time>2026-05-02T16:19:28.561Z</time></trkpt><trkpt lat="43.226903" lon="12.8135326"><ele>803.1428571428572</ele><time>2026-05-02T16:19:34.56Z</time></trkpt><trkpt lat="43.2269724" lon="12.8135572"><ele>799.0</ele><time>2026-05-02T16:19:40.476Z</time></trkpt><trkpt lat="43.2270351" lon="12.8135034"><ele>799.0</ele><time>2026-05-02T16:19:48.561Z</time></trkpt><trkpt lat="43.227094" lon="12.8134645"><ele>799.0</ele><time>2026-05-02T16:19:55.561Z</time></trkpt><trkpt lat="43.2271386" lon="12.8133938"><ele>799.0</ele><time>2026-05-02T16:20:03.561Z</time></trkpt><trkpt lat="43.2271657" lon="12.8133007"><ele>799.0</ele><time>2026-05-02T16:20:09.561Z</time></trkpt><trkpt lat="43.227225" lon="12.8132463"><ele>799.0</ele><time>2026-05-02T16:20:14.561Z</time></trkpt><trkpt lat="43.2272459" lon="12.8131499"><ele>799.0</ele><time>2026-05-02T16:20:22.561Z</time></trkpt><trkpt lat="43.2272646" lon="12.8130668"><ele>799.0</ele><time>2026-05-02T16:20:28.561Z</time></trkpt><trkpt lat="43.2273151" lon="12.812995"><ele>798.1666666666666</ele><time>2026-05-02T16:20:35.561Z</time></trkpt><trkpt lat="43.2273262" lon="12.8128583"><ele>797.3333333333333</ele><time>2026-05-02T16:20:56.56Z</time></trkpt><trkpt lat="43.2273769" lon="12.8127708"><ele>796.5</ele><time>2026-05-02T16:21:01.561Z</time></trkpt><trkpt lat="43.2274189" lon="12.8126989"><ele>795.6666666666667</ele><time>2026-05-02T16:21:06.511Z</time></trkpt><trkpt lat="43.2274363" lon="12.8126124"><ele>794.8333333333334</ele><time>2026-05-02T16:21:12.561Z</time></trkpt><trkpt lat="43.2274639" lon="12.8125258"><ele>794.0</ele><time>2026-05-02T16:21:19.56Z</time></trkpt><trkpt lat="43.2274933" lon="12.812443"><ele>790.5714285714286</ele><time>2026-05-02T16:21:27.561Z</time></trkpt><trkpt lat="43.2275071" lon="12.8123555"><ele>787.1428571428571</ele><time>2026-05-02T16:21:37.437Z</time></trkpt><trkpt lat="43.2275023" lon="12.8122654"><ele>783.7142857142858</ele><time>2026-05-02T16:21:44.561Z</time></trkpt><trkpt lat="43.2275023" lon="12.8121706"><ele>780.2857142857142</ele><time>2026-05-02T16:21:52.56Z</time></trkpt><trkpt lat="43.2274804" lon="12.8120856"><ele>776.8571428571429</ele><time>2026-05-02T16:21:59.56Z</time></trkpt><trkpt lat="43.2274723" lon="12.8119973"><ele>773.4285714285714</ele><time>2026-05-02T16:22:04.494Z</time></trkpt><trkpt lat="43.2275058" lon="12.8119158"><ele>770.0</ele><time>2026-05-02T16:22:11.41Z</time></trkpt><trkpt lat="43.227453" lon="12.8118412"><ele>769.4285714285714</ele><time>2026-05-02T16:23:24.561Z</time></trkpt><trkpt lat="43.2274292" lon="12.8117504"><ele>768.8571428571429</ele><time>2026-05-02T16:25:32.56Z</time></trkpt><trkpt lat="43.2274234" lon="12.8116577"><ele>768.2857142857142</ele><time>2026-05-02T16:25:37.56Z</time></trkpt><trkpt lat="43.2274524" lon="12.8115703"><ele>767.7142857142858</ele><time>2026-05-02T16:25:45.518Z</time></trkpt><trkpt lat="43.2274273" lon="12.8114879"><ele>767.1428571428571</ele><time>2026-05-02T16:25:52.477Z</time></trkpt><trkpt lat="43.227385" lon="12.8114239"><ele>766.5714285714286</ele><time>2026-05-02T16:25:58.561Z</time></trkpt><trkpt lat="43.2273753" lon="12.8113271"><ele>766.0</ele><time>2026-05-02T16:26:06.561Z</time></trkpt><trkpt lat="43.2273669" lon="12.8112192"><ele>766.0</ele><time>2026-05-02T16:26:14.56Z</time></trkpt><trkpt lat="43.2273813" lon="12.8111318"><ele>766.0</ele><time>2026-05-02T16:26:20.56Z</time></trkpt><trkpt lat="43.2273277" lon="12.8110787"><ele>766.0</ele><time>2026-05-02T16:26:25.56Z</time></trkpt><trkpt lat="43.2272753" lon="12.8110194"><ele>766.0</ele><time>2026-05-02T16:26:30.56Z</time></trkpt><trkpt lat="43.2272542" lon="12.8109253"><ele>766.0</ele><time>2026-05-02T16:26:38.56Z</time></trkpt><trkpt lat="43.2272055" lon="12.8108498"><ele>766.0</ele><time>2026-05-02T16:26:44.56Z</time></trkpt><trkpt lat="43.2272228" lon="12.8107618"><ele>766.0</ele><time>2026-05-02T16:26:51.559Z</time></trkpt><trkpt lat="43.2271994" lon="12.8106763"><ele>766.7142857142857</ele><time>2026-05-02T16:27:00.558Z</time></trkpt><trkpt lat="43.2271441" lon="12.8106102"><ele>767.4285714285713</ele><time>2026-05-02T16:27:08.56Z</time></trkpt><trkpt lat="43.2271229" lon="12.8105216"><ele>768.1428571428571</ele><time>2026-05-02T16:27:16.56Z</time></trkpt><trkpt lat="43.2271137" lon="12.8104294"><ele>768.8571428571429</ele><time>2026-05-02T16:27:23.559Z</time></trkpt><trkpt lat="43.2270801" lon="12.8103453"><ele>769.5714285714286</ele><time>2026-05-02T16:27:33.497Z</time></trkpt><trkpt lat="43.227063" lon="12.8102471"><ele>770.2857142857143</ele><time>2026-05-02T16:27:37.559Z</time></trkpt><trkpt lat="43.2270243" lon="12.8101703"><ele>771.0</ele><time>2026-05-02T16:27:45.559Z</time></trkpt><trkpt lat="43.2269574" lon="12.8101492"><ele>769.5714285714286</ele><time>2026-05-02T16:27:52.56Z</time></trkpt><trkpt lat="43.2268966" lon="12.8100983"><ele>768.1428571428571</ele><time>2026-05-02T16:28:00.543Z</time></trkpt><trkpt lat="43.2268537" lon="12.8100197"><ele>766.7142857142857</ele><time>2026-05-02T16:28:07.56Z</time></trkpt><trkpt lat="43.2268386" lon="12.8099292"><ele>765.2857142857142</ele><time>2026-05-02T16:28:15.468Z</time></trkpt><trkpt lat="43.2268475" lon="12.8098299"><ele>763.8571428571429</ele><time>2026-05-02T16:28:42.56Z</time></trkpt><trkpt lat="43.2268297" lon="12.8097431"><ele>762.4285714285713</ele><time>2026-05-02T16:28:47.56Z</time></trkpt><trkpt lat="43.2267993" lon="12.8096633"><ele>761.0</ele><time>2026-05-02T16:28:53.559Z</time></trkpt><trkpt lat="43.2267823" lon="12.8095784"><ele>760.9999999999999</ele><time>2026-05-02T16:28:59.559Z</time></trkpt><trkpt lat="43.2267802" lon="12.8094865"><ele>761.0</ele><time>2026-05-02T16:29:06.56Z</time></trkpt><trkpt lat="43.2267335" lon="12.8094179"><ele>761.0</ele><time>2026-05-02T16:29:13.56Z</time></trkpt><trkpt lat="43.2267291" lon="12.8093263"><ele>761.0</ele><time>2026-05-02T16:29:19.528Z</time></trkpt><trkpt lat="43.2267402" lon="12.8092314"><ele>761.0</ele><time>2026-05-02T16:29:26.504Z</time></trkpt><trkpt lat="43.2267303" lon="12.8091314"><ele>760.9999999999999</ele><time>2026-05-02T16:29:33.484Z</time></trkpt><trkpt lat="43.2267453" lon="12.809035"><ele>761.0</ele><time>2026-05-02T16:29:40.559Z</time></trkpt><trkpt lat="43.226759" lon="12.8089381"><ele>761.5714285714286</ele><time>2026-05-02T16:29:46.56Z</time></trkpt><trkpt lat="43.2267623" lon="12.8088517"><ele>762.1428571428571</ele><time>2026-05-02T16:29:52.56Z</time></trkpt><trkpt lat="43.2267654" lon="12.808752"><ele>762.7142857142858</ele><time>2026-05-02T16:30:00.56Z</time></trkpt><trkpt lat="43.2267825" lon="12.8086609"><ele>763.2857142857142</ele><time>2026-05-02T16:30:08.559Z</time></trkpt><trkpt lat="43.2267542" lon="12.8085764"><ele>763.8571428571429</ele><time>2026-05-02T16:30:14.559Z</time></trkpt><trkpt lat="43.2267783" lon="12.8084952"><ele>764.4285714285714</ele><time>2026-05-02T16:30:22.486Z</time></trkpt><trkpt lat="43.2267496" lon="12.8084075"><ele>765.0</ele><time>2026-05-02T16:30:30.56Z</time></trkpt><trkpt lat="43.2267055" lon="12.8083312"><ele>765.5714285714287</ele><time>2026-05-02T16:30:37.545Z</time></trkpt><trkpt lat="43.2266578" lon="12.8082677"><ele>766.1428571428571</ele><time>2026-05-02T16:30:45.56Z</time></trkpt><trkpt lat="43.2266299" lon="12.8081838"><ele>766.7142857142858</ele><time>2026-05-02T16:30:55.56Z</time></trkpt><trkpt lat="43.2265958" lon="12.8081074"><ele>767.2857142857143</ele><time>2026-05-02T16:31:00.559Z</time></trkpt><trkpt lat="43.2265551" lon="12.8080375"><ele>767.8571428571429</ele><time>2026-05-02T16:31:11.56Z</time></trkpt><trkpt lat="43.2265599" lon="12.807944"><ele>768.4285714285714</ele><time>2026-05-02T16:31:18.47Z</time></trkpt><trkpt lat="43.2265635" lon="12.8078556"><ele>769.0</ele><time>2026-05-02T16:31:26.559Z</time></trkpt><trkpt lat="43.2265616" lon="12.8077585"><ele>769.0</ele><time>2026-05-02T16:31:33.56Z</time></trkpt><trkpt lat="43.2265569" lon="12.8076675"><ele>769.0</ele><time>2026-05-02T16:31:41.56Z</time></trkpt><trkpt lat="43.2265758" lon="12.8075777"><ele>769.0</ele><time>2026-05-02T16:31:54.559Z</time></trkpt><trkpt lat="43.2266323" lon="12.8075377"><ele>769.0</ele><time>2026-05-02T16:32:01.559Z</time></trkpt><trkpt lat="43.2266954" lon="12.8075031"><ele>769.0</ele><time>2026-05-02T16:32:08.56Z</time></trkpt><trkpt lat="43.2267614" lon="12.8074678"><ele>769.0</ele><time>2026-05-02T16:32:16.56Z</time></trkpt><trkpt lat="43.2268194" lon="12.8074257"><ele>769.0</ele><time>2026-05-02T16:32:24.558Z</time></trkpt><trkpt lat="43.2268834" lon="12.8073769"><ele>767.8571428571428</ele><time>2026-05-02T16:32:33.559Z</time></trkpt><trkpt lat="43.2269297" lon="12.8073093"><ele>766.7142857142858</ele><time>2026-05-02T16:32:40.559Z</time></trkpt><trkpt lat="43.2269747" lon="12.8072446"><ele>765.5714285714286</ele><time>2026-05-02T16:32:47.56Z</time></trkpt><trkpt lat="43.2270294" lon="12.8071834"><ele>764.4285714285713</ele><time>2026-05-02T16:32:55.56Z</time></trkpt><trkpt lat="43.2270892" lon="12.807141"><ele>763.2857142857142</ele><time>2026-05-02T16:33:02.559Z</time></trkpt><trkpt lat="43.2271519" lon="12.8071258"><ele>762.1428571428571</ele><time>2026-05-02T16:33:08.56Z</time></trkpt><trkpt lat="43.2272176" lon="12.8071352"><ele>761.0</ele><time>2026-05-02T16:33:15.56Z</time></trkpt><trkpt lat="43.2272848" lon="12.8071146"><ele>759.8571428571428</ele><time>2026-05-02T16:33:22.56Z</time></trkpt><trkpt lat="43.2273171" lon="12.8070393"><ele>758.7142857142857</ele><time>2026-05-02T16:33:28.56Z</time></trkpt><trkpt lat="43.2273412" lon="12.8069546"><ele>757.5714285714286</ele><time>2026-05-02T16:33:36.508Z</time></trkpt><trkpt lat="43.2274076" lon="12.8069324"><ele>756.4285714285713</ele><time>2026-05-02T16:33:45.559Z</time></trkpt><trkpt lat="43.2274671" lon="12.80689"><ele>755.2857142857143</ele><time>2026-05-02T16:33:56.559Z</time></trkpt><trkpt lat="43.227421" lon="12.8068121"><ele>754.1428571428571</ele><time>2026-05-02T16:34:07.56Z</time></trkpt><trkpt lat="43.2273938" lon="12.8067234"><ele>753.0</ele><time>2026-05-02T16:34:13.559Z</time></trkpt><trkpt lat="43.2274168" lon="12.8066328"><ele>746.7142857142858</ele><time>2026-05-02T16:34:22.56Z</time></trkpt><trkpt lat="43.2274753" lon="12.8065912"><ele>740.4285714285714</ele><time>2026-05-02T16:34:33.56Z</time></trkpt><trkpt lat="43.2275308" lon="12.8065417"><ele>734.1428571428571</ele><time>2026-05-02T16:34:45.558Z</time></trkpt><trkpt lat="43.227557" lon="12.806454"><ele>727.8571428571429</ele><time>2026-05-02T16:34:55.56Z</time></trkpt><trkpt lat="43.2275929" lon="12.8063819"><ele>721.5714285714286</ele><time>2026-05-02T16:35:05.559Z</time></trkpt><trkpt lat="43.2276067" lon="12.8062921"><ele>715.2857142857143</ele><time>2026-05-02T16:35:16.56Z</time></trkpt><trkpt lat="43.2276753" lon="12.8062882"><ele>709.0</ele><time>2026-05-02T16:35:26.56Z</time></trkpt><trkpt lat="43.2276928" lon="12.8061975"><ele>709.0000000000001</ele><time>2026-05-02T16:35:35.56Z</time></trkpt><trkpt lat="43.2276841" lon="12.8061079"><ele>709.0</ele><time>2026-05-02T16:35:42.559Z</time></trkpt><trkpt lat="43.2277036" lon="12.8060193"><ele>709.0</ele><time>2026-05-02T16:35:50.559Z</time></trkpt><trkpt lat="43.2277163" lon="12.805927"><ele>709.0</ele><time>2026-05-02T16:35:58.559Z</time></trkpt><trkpt lat="43.2277435" lon="12.8058397"><ele>709.0</ele><time>2026-05-02T16:36:07.56Z</time></trkpt><trkpt lat="43.227748" lon="12.8057459"><ele>709.0000000000001</ele><time>2026-05-02T16:36:15.503Z</time></trkpt><trkpt lat="43.2277211" lon="12.8056584"><ele>709.0</ele><time>2026-05-02T16:36:22.56Z</time></trkpt><trkpt lat="43.2276996" lon="12.8055716"><ele>708.8571428571429</ele><time>2026-05-02T16:36:31.559Z</time></trkpt><trkpt lat="43.2276801" lon="12.8054853"><ele>708.7142857142858</ele><time>2026-05-02T16:36:40.56Z</time></trkpt><trkpt lat="43.227678" lon="12.8053942"><ele>708.5714285714287</ele><time>2026-05-02T16:36:49.56Z</time></trkpt><trkpt lat="43.2276848" lon="12.8053007"><ele>708.4285714285714</ele><time>2026-05-02T16:36:58.559Z</time></trkpt><trkpt lat="43.2277091" lon="12.8052124"><ele>708.2857142857142</ele><time>2026-05-02T16:37:08.56Z</time></trkpt><trkpt lat="43.2277506" lon="12.805133"><ele>708.1428571428572</ele><time>2026-05-02T16:37:17.56Z</time></trkpt><trkpt lat="43.2277587" lon="12.805044"><ele>708.0</ele><time>2026-05-02T16:37:24.56Z</time></trkpt><trkpt lat="43.2277999" lon="12.8049637"><ele>708.0</ele><time>2026-05-02T16:37:31.559Z</time></trkpt><trkpt lat="43.227845" lon="12.8049027"><ele>708.0</ele><time>2026-05-02T16:37:37.508Z</time></trkpt><trkpt lat="43.2278368" lon="12.8048149"><ele>708.0</ele><time>2026-05-02T16:37:42.558Z</time></trkpt><trkpt lat="43.2278684" lon="12.8047265"><ele>708.0</ele><time>2026-05-02T16:37:49.56Z</time></trkpt><trkpt lat="43.2278941" lon="12.8046466"><ele>708.0</ele><time>2026-05-02T16:37:56.559Z</time></trkpt><trkpt lat="43.2279021" lon="12.804547"><ele>708.0</ele><time>2026-05-02T16:38:03.534Z</time></trkpt><trkpt lat="43.2279043" lon="12.8044548"><ele>708.0</ele><time>2026-05-02T16:38:10.559Z</time></trkpt><trkpt lat="43.2278939" lon="12.8043688"><ele>709.2857142857143</ele><time>2026-05-02T16:38:16.56Z</time></trkpt><trkpt lat="43.2278988" lon="12.8042813"><ele>710.5714285714286</ele><time>2026-05-02T16:38:23.559Z</time></trkpt><trkpt lat="43.2278989" lon="12.8041893"><ele>711.8571428571429</ele><time>2026-05-02T16:38:31.559Z</time></trkpt><trkpt lat="43.2278742" lon="12.8041019"><ele>713.1428571428571</ele><time>2026-05-02T16:38:52.559Z</time></trkpt><trkpt lat="43.2278951" lon="12.8040174"><ele>714.4285714285713</ele><time>2026-05-02T16:39:04.558Z</time></trkpt><trkpt lat="43.2279602" lon="12.8039864"><ele>715.7142857142857</ele><time>2026-05-02T16:39:10.559Z</time></trkpt><trkpt lat="43.228027" lon="12.8039558"><ele>717.0</ele><time>2026-05-02T16:39:18.56Z</time></trkpt><trkpt lat="43.228096" lon="12.8039536"><ele>717.0</ele><time>2026-05-02T16:39:26.538Z</time></trkpt><trkpt lat="43.2280687" lon="12.8040394"><ele>717.0</ele><time>2026-05-02T16:39:34.56Z</time></trkpt><trkpt lat="43.2281134" lon="12.8039705"><ele>717.0</ele><time>2026-05-02T16:45:40.56Z</time></trkpt><trkpt lat="43.2281432" lon="12.8038895"><ele>717.0</ele><time>2026-05-02T16:45:48.559Z</time></trkpt><trkpt lat="43.2282078" lon="12.803865"><ele>717.0</ele><time>2026-05-02T16:45:59.559Z</time></trkpt><trkpt lat="43.2282812" lon="12.8038764"><ele>717.0</ele><time>2026-05-02T16:46:06.56Z</time></trkpt><trkpt lat="43.2283416" lon="12.803846"><ele>717.0</ele><time>2026-05-02T16:46:11.56Z</time></trkpt><trkpt lat="43.2284052" lon="12.8038128"><ele>708.7142857142857</ele><time>2026-05-02T16:46:19.56Z</time></trkpt><trkpt lat="43.2284691" lon="12.8038132"><ele>700.4285714285713</ele><time>2026-05-02T16:46:27.559Z</time></trkpt><trkpt lat="43.2285342" lon="12.8037887"><ele>692.1428571428571</ele><time>2026-05-02T16:46:37.559Z</time></trkpt><trkpt lat="43.2286002" lon="12.8037791"><ele>683.8571428571429</ele><time>2026-05-02T16:46:48.559Z</time></trkpt><trkpt lat="43.2286466" lon="12.8037178"><ele>675.5714285714286</ele><time>2026-05-02T16:46:59.264Z</time></trkpt><trkpt lat="43.2286877" lon="12.8036422"><ele>667.2857142857143</ele><time>2026-05-02T16:47:07.56Z</time></trkpt><trkpt lat="43.2287322" lon="12.8035774"><ele>659.0</ele><time>2026-05-02T16:47:14.56Z</time></trkpt><trkpt lat="43.2287532" lon="12.8034818"><ele>659.0</ele><time>2026-05-02T16:47:23.559Z</time></trkpt><trkpt lat="43.2288048" lon="12.8034174"><ele>659.0</ele><time>2026-05-02T16:47:49.56Z</time></trkpt><trkpt lat="43.2288721" lon="12.8034321"><ele>659.0</ele><time>2026-05-02T16:47:55.464Z</time></trkpt><trkpt lat="43.2288912" lon="12.8032878"><ele>659.0</ele><time>2026-05-02T16:48:00.505Z</time></trkpt><trkpt lat="43.2288882" lon="12.8031993"><ele>659.0</ele><time>2026-05-02T16:48:01.559Z</time></trkpt><trkpt lat="43.2289246" lon="12.8031232"><ele>659.0</ele><time>2026-05-02T16:48:06.559Z</time></trkpt><trkpt lat="43.2289621" lon="12.8030489"><ele>659.0</ele><time>2026-05-02T16:48:12.56Z</time></trkpt><trkpt lat="43.2290098" lon="12.8029805"><ele>658.7142857142858</ele><time>2026-05-02T16:48:18.56Z</time></trkpt><trkpt lat="43.2290504" lon="12.80291"><ele>658.4285714285713</ele><time>2026-05-02T16:48:25.559Z</time></trkpt><trkpt lat="43.2291033" lon="12.8028438"><ele>658.1428571428571</ele><time>2026-05-02T16:48:32.56Z</time></trkpt><trkpt lat="43.2291533" lon="12.8027844"><ele>657.8571428571429</ele><time>2026-05-02T16:48:39.559Z</time></trkpt><trkpt lat="43.2292011" lon="12.8027214"><ele>657.5714285714287</ele><time>2026-05-02T16:48:47.545Z</time></trkpt><trkpt lat="43.2292183" lon="12.802634"><ele>657.2857142857142</ele><time>2026-05-02T16:48:55.56Z</time></trkpt><trkpt lat="43.2292359" lon="12.8025489"><ele>657.0</ele><time>2026-05-02T16:49:02.505Z</time></trkpt><trkpt lat="43.2292553" lon="12.8024601"><ele>654.0</ele><time>2026-05-02T16:49:09.485Z</time></trkpt><trkpt lat="43.2292685" lon="12.8023716"><ele>651.0</ele><time>2026-05-02T16:49:16.56Z</time></trkpt><trkpt lat="43.2292798" lon="12.8022744"><ele>648.0</ele><time>2026-05-02T16:49:22.56Z</time></trkpt><trkpt lat="43.2292864" lon="12.8021829"><ele>645.0</ele><time>2026-05-02T16:49:31.56Z</time></trkpt><trkpt lat="43.2292857" lon="12.8020829"><ele>642.0</ele><time>2026-05-02T16:49:39.566Z</time></trkpt><trkpt lat="43.229254" lon="12.8020034"><ele>639.0</ele><time>2026-05-02T16:49:53.56Z</time></trkpt><trkpt lat="43.2291857" lon="12.8020027"><ele>636.0</ele><time>2026-05-02T16:49:59.56Z</time></trkpt><trkpt lat="43.2291375" lon="12.802065"><ele>636.0</ele><time>2026-05-02T16:50:05.56Z</time></trkpt><trkpt lat="43.2290949" lon="12.8021413"><ele>636.0</ele><time>2026-05-02T16:50:12.56Z</time></trkpt><trkpt lat="43.2290628" lon="12.8022227"><ele>636.0</ele><time>2026-05-02T16:50:18.559Z</time></trkpt><trkpt lat="43.2290386" lon="12.802312"><ele>636.0</ele><time>2026-05-02T16:50:25.564Z</time></trkpt><trkpt lat="43.2290041" lon="12.8023897"><ele>636.0</ele><time>2026-05-02T16:50:32.558Z</time></trkpt><trkpt lat="43.2289769" lon="12.8024784"><ele>636.0</ele><time>2026-05-02T16:50:39.559Z</time></trkpt><trkpt lat="43.2289365" lon="12.8025544"><ele>636.0</ele><time>2026-05-02T16:50:45.559Z</time></trkpt><trkpt lat="43.2288737" lon="12.8026092"><ele>638.4285714285714</ele><time>2026-05-02T16:50:51.559Z</time></trkpt><trkpt lat="43.2288109" lon="12.8025653"><ele>640.8571428571429</ele><time>2026-05-02T16:50:57.558Z</time></trkpt><trkpt lat="43.2287753" lon="12.8024821"><ele>643.2857142857143</ele><time>2026-05-02T16:51:07.464Z</time></trkpt><trkpt lat="43.228784" lon="12.8023931"><ele>645.7142857142858</ele><time>2026-05-02T16:51:14.558Z</time></trkpt><trkpt lat="43.2287844" lon="12.8022978"><ele>648.1428571428571</ele><time>2026-05-02T16:51:20.558Z</time></trkpt><trkpt lat="43.2287905" lon="12.8022068"><ele>650.5714285714287</ele><time>2026-05-02T16:51:26.559Z</time></trkpt><trkpt lat="43.2287825" lon="12.8021051"><ele>653.0</ele><time>2026-05-02T16:51:33.558Z</time></trkpt><trkpt lat="43.2288096" lon="12.8020188"><ele>653.0000000000001</ele><time>2026-05-02T16:51:39.559Z</time></trkpt><trkpt lat="43.2288638" lon="12.8019615"><ele>653.0</ele><time>2026-05-02T16:51:45.559Z</time></trkpt><trkpt lat="43.2289106" lon="12.801895"><ele>653.0</ele><time>2026-05-02T16:51:52.558Z</time></trkpt><trkpt lat="43.2289523" lon="12.8018197"><ele>653.0</ele><time>2026-05-02T16:51:59.559Z</time></trkpt><trkpt lat="43.2289653" lon="12.8017251"><ele>653.0</ele><time>2026-05-02T16:52:07.559Z</time></trkpt><trkpt lat="43.2289465" lon="12.8016378"><ele>653.0000000000001</ele><time>2026-05-02T16:52:13.559Z</time></trkpt><trkpt lat="43.2289276" lon="12.8015406"><ele>653.0</ele><time>2026-05-02T16:52:20.536Z</time></trkpt><trkpt lat="43.2289192" lon="12.8014545"><ele>649.5714285714287</ele><time>2026-05-02T16:52:26.559Z</time></trkpt><trkpt lat="43.2289215" lon="12.8013581"><ele>646.1428571428571</ele><time>2026-05-02T16:52:32.558Z</time></trkpt><trkpt lat="43.2289024" lon="12.8012741"><ele>642.7142857142858</ele><time>2026-05-02T16:52:47.559Z</time></trkpt><trkpt lat="43.2288897" lon="12.8011715"><ele>639.2857142857143</ele><time>2026-05-02T16:52:53.558Z</time></trkpt><trkpt lat="43.2288878" lon="12.8010817"><ele>635.8571428571429</ele><time>2026-05-02T16:53:00.554Z</time></trkpt><trkpt lat="43.2288769" lon="12.8009928"><ele>632.4285714285714</ele><time>2026-05-02T16:53:08.559Z</time></trkpt><trkpt lat="43.2288611" lon="12.8009004"><ele>629.0</ele><time>2026-05-02T16:53:15.558Z</time></trkpt><trkpt lat="43.2288193" lon="12.8008264"><ele>625.5714285714286</ele><time>2026-05-02T16:53:22.528Z</time></trkpt><trkpt lat="43.2287617" lon="12.8007914"><ele>622.1428571428572</ele><time>2026-05-02T16:53:28.559Z</time></trkpt><trkpt lat="43.2286949" lon="12.8007605"><ele>618.7142857142858</ele><time>2026-05-02T16:53:35.559Z</time></trkpt><trkpt lat="43.2286337" lon="12.8007132"><ele>615.2857142857142</ele><time>2026-05-02T16:53:42.559Z</time></trkpt><trkpt lat="43.2285835" lon="12.8006424"><ele>611.8571428571429</ele><time>2026-05-02T16:53:49.554Z</time></trkpt><trkpt lat="43.2285245" lon="12.8005906"><ele>608.4285714285714</ele><time>2026-05-02T16:53:56.559Z</time></trkpt><trkpt lat="43.2284574" lon="12.8005589"><ele>605.0</ele><time>2026-05-02T16:54:03.535Z</time></trkpt><trkpt lat="43.2284006" lon="12.8005033"><ele>605.0</ele><time>2026-05-02T16:54:11.5Z</time></trkpt><trkpt lat="43.228341" lon="12.8004461"><ele>605.0</ele><time>2026-05-02T16:54:18.559Z</time></trkpt><trkpt lat="43.2282748" lon="12.8004161"><ele>605.0</ele><time>2026-05-02T16:54:24.558Z</time></trkpt><trkpt lat="43.2282147" lon="12.8003867"><ele>605.0</ele><time>2026-05-02T16:54:30.559Z</time></trkpt><trkpt lat="43.2281499" lon="12.8003415"><ele>605.0</ele><time>2026-05-02T16:54:37.558Z</time></trkpt><trkpt lat="43.2281119" lon="12.8002723"><ele>605.0</ele><time>2026-05-02T16:54:43.559Z</time></trkpt><trkpt lat="43.2280808" lon="12.8001856"><ele>605.0</ele><time>2026-05-02T16:54:50.559Z</time></trkpt><trkpt lat="43.2280406" lon="12.800106"><ele>606.7142857142857</ele><time>2026-05-02T16:54:57.559Z</time></trkpt><trkpt lat="43.2280175" lon="12.8000242"><ele>608.4285714285714</ele><time>2026-05-02T16:55:03.559Z</time></trkpt><trkpt lat="43.2280016" lon="12.7999284"><ele>610.1428571428571</ele><time>2026-05-02T16:55:10.558Z</time></trkpt><trkpt lat="43.2280046" lon="12.7998353"><ele>611.8571428571429</ele><time>2026-05-02T16:55:18.558Z</time></trkpt><trkpt lat="43.2280018" lon="12.7997413"><ele>613.5714285714286</ele><time>2026-05-02T16:55:25.559Z</time></trkpt><trkpt lat="43.2280216" lon="12.7996562"><ele>615.2857142857143</ele><time>2026-05-02T16:55:32.558Z</time></trkpt><trkpt lat="43.228024" lon="12.7995569"><ele>617.0</ele><time>2026-05-02T16:55:38.518Z</time></trkpt><trkpt lat="43.2280351" lon="12.7994697"><ele>617.0</ele><time>2026-05-02T16:55:44.558Z</time></trkpt><trkpt lat="43.2280483" lon="12.7993743"><ele>617.0</ele><time>2026-05-02T16:55:51.559Z</time></trkpt><trkpt lat="43.2280558" lon="12.7992782"><ele>617.0</ele><time>2026-05-02T16:55:58.559Z</time></trkpt><trkpt lat="43.2280492" lon="12.7991817"><ele>617.0</ele><time>2026-05-02T16:56:05.559Z</time></trkpt><trkpt lat="43.228065" lon="12.7990952"><ele>617.0</ele><time>2026-05-02T16:56:13.559Z</time></trkpt><trkpt lat="43.2280081" lon="12.7990333"><ele>617.0</ele><time>2026-05-02T16:56:28.559Z</time></trkpt><trkpt lat="43.2279899" lon="12.7989428"><ele>617.0</ele><time>2026-05-02T16:56:36.559Z</time></trkpt><trkpt lat="43.2280339" lon="12.7988799"><ele>617.4285714285714</ele><time>2026-05-02T16:56:43.559Z</time></trkpt><trkpt lat="43.2280407" lon="12.798788"><ele>617.8571428571428</ele><time>2026-05-02T16:56:51.559Z</time></trkpt><trkpt lat="43.2280639" lon="12.7987034"><ele>618.2857142857142</ele><time>2026-05-02T16:56:58.559Z</time></trkpt><trkpt lat="43.2280806" lon="12.7986162"><ele>618.7142857142858</ele><time>2026-05-02T16:57:05.559Z</time></trkpt><trkpt lat="43.2281148" lon="12.7985418"><ele>619.1428571428571</ele><time>2026-05-02T16:57:12.559Z</time></trkpt><trkpt lat="43.2281438" lon="12.7984599"><ele>619.5714285714286</ele><time>2026-05-02T16:57:18.559Z</time></trkpt><trkpt lat="43.2281824" lon="12.7983779"><ele>620.0</ele><time>2026-05-02T16:57:25.558Z</time></trkpt><trkpt lat="43.2282192" lon="12.7983069"><ele>612.1428571428571</ele><time>2026-05-02T16:57:31.558Z</time></trkpt><trkpt lat="43.2282544" lon="12.7982203"><ele>604.2857142857142</ele><time>2026-05-02T16:57:38.557Z</time></trkpt><trkpt lat="43.2282953" lon="12.798141"><ele>596.4285714285713</ele><time>2026-05-02T16:57:45.559Z</time></trkpt><trkpt lat="43.22833" lon="12.7980682"><ele>588.5714285714286</ele><time>2026-05-02T16:57:51.47Z</time></trkpt><trkpt lat="43.2283738" lon="12.7980028"><ele>580.7142857142857</ele><time>2026-05-02T16:57:57.559Z</time></trkpt><trkpt lat="43.228422" lon="12.797931"><ele>572.8571428571428</ele><time>2026-05-02T16:58:04.559Z</time></trkpt><trkpt lat="43.2284769" lon="12.7978659"><ele>565.0</ele><time>2026-05-02T16:58:11.559Z</time></trkpt><trkpt lat="43.2285365" lon="12.7978094"><ele>564.9999999999999</ele><time>2026-05-02T16:58:19.425Z</time></trkpt><trkpt lat="43.228596" lon="12.7977564"><ele>565.0</ele><time>2026-05-02T16:58:26.559Z</time></trkpt><trkpt lat="43.2286444" lon="12.7976915"><ele>565.0</ele><time>2026-05-02T16:58:33.559Z</time></trkpt><trkpt lat="43.2286801" lon="12.7976055"><ele>565.0</ele><time>2026-05-02T16:58:41.559Z</time></trkpt><trkpt lat="43.2287083" lon="12.7975116"><ele>565.0</ele><time>2026-05-02T16:58:47.559Z</time></trkpt><trkpt lat="43.2287427" lon="12.7974314"><ele>564.9999999999999</ele><time>2026-05-02T16:58:52.469Z</time></trkpt><trkpt lat="43.2287802" lon="12.797348"><ele>565.0</ele><time>2026-05-02T16:58:58.559Z</time></trkpt><trkpt lat="43.2288148" lon="12.7972659"><ele>565.4285714285713</ele><time>2026-05-02T16:59:04.558Z</time></trkpt><trkpt lat="43.2288356" lon="12.7971734"><ele>565.8571428571429</ele><time>2026-05-02T16:59:10.559Z</time></trkpt><trkpt lat="43.2288377" lon="12.7970856"><ele>566.2857142857142</ele><time>2026-05-02T16:59:16.558Z</time></trkpt><trkpt lat="43.2288252" lon="12.796991"><ele>566.7142857142857</ele><time>2026-05-02T16:59:23.461Z</time></trkpt><trkpt lat="43.2288065" lon="12.7969015"><ele>567.1428571428571</ele><time>2026-05-02T16:59:31.559Z</time></trkpt><trkpt lat="43.2287964" lon="12.7968089"><ele>567.5714285714286</ele><time>2026-05-02T16:59:38.558Z</time></trkpt><trkpt lat="43.2288104" lon="12.7967129"><ele>568.0</ele><time>2026-05-02T16:59:45.558Z</time></trkpt><trkpt lat="43.2288021" lon="12.796618"><ele>568.2857142857142</ele><time>2026-05-02T16:59:52.559Z</time></trkpt><trkpt lat="43.2287835" lon="12.7965204"><ele>568.5714285714286</ele><time>2026-05-02T16:59:59.559Z</time></trkpt><trkpt lat="43.22878" lon="12.796422"><ele>568.8571428571429</ele><time>2026-05-02T17:00:06.558Z</time></trkpt><trkpt lat="43.2287686" lon="12.7963238"><ele>569.1428571428571</ele><time>2026-05-02T17:00:13.561Z</time></trkpt><trkpt lat="43.2287613" lon="12.7962368"><ele>569.4285714285714</ele><time>2026-05-02T17:00:20.558Z</time></trkpt><trkpt lat="43.2287485" lon="12.7961443"><ele>569.7142857142857</ele><time>2026-05-02T17:00:27.489Z</time></trkpt><trkpt lat="43.2287571" lon="12.7960471"><ele>570.0</ele><time>2026-05-02T17:00:34.558Z</time></trkpt><trkpt lat="43.2287719" lon="12.7959617"><ele>569.0</ele><time>2026-05-02T17:00:40.559Z</time></trkpt><trkpt lat="43.2287829" lon="12.7958627"><ele>568.0</ele><time>2026-05-02T17:00:47.559Z</time></trkpt><trkpt lat="43.2287927" lon="12.7957683"><ele>567.0</ele><time>2026-05-02T17:00:54.559Z</time></trkpt><trkpt lat="43.2287946" lon="12.7956809"><ele>566.0</ele><time>2026-05-02T17:01:00.559Z</time></trkpt><trkpt lat="43.2287934" lon="12.7955867"><ele>565.0</ele><time>2026-05-02T17:01:07.526Z</time></trkpt><trkpt lat="43.2288145" lon="12.7955001"><ele>564.0</ele><time>2026-05-02T17:01:14.559Z</time></trkpt><trkpt lat="43.2287462" lon="12.7955245"><ele>563.0</ele><time>2026-05-02T17:02:37.558Z</time></trkpt><trkpt lat="43.228807" lon="12.7954922"><ele>563.0</ele><time>2026-05-02T17:07:02.558Z</time></trkpt><trkpt lat="43.2288601" lon="12.7954394"><ele>563.0</ele><time>2026-05-02T17:07:12.559Z</time></trkpt><trkpt lat="43.2288811" lon="12.7953499"><ele>563.0</ele><time>2026-05-02T17:07:22.559Z</time></trkpt><trkpt lat="43.2289077" lon="12.7952599"><ele>563.0</ele><time>2026-05-02T17:07:29.566Z</time></trkpt><trkpt lat="43.2289059" lon="12.7951631"><ele>563.0</ele><time>2026-05-02T17:09:52.558Z</time></trkpt><trkpt lat="43.2289819" lon="12.7949458"><ele>558.8333333333333</ele><time>2026-05-02T17:09:55.559Z</time></trkpt><trkpt lat="43.2290571" lon="12.7947855"><ele>554.6666666666666</ele><time>2026-05-02T17:09:57.559Z</time></trkpt><trkpt lat="43.22911" lon="12.7947208"><ele>550.5</ele><time>2026-05-02T17:09:58.559Z</time></trkpt><trkpt lat="43.2291643" lon="12.794652"><ele>546.3333333333334</ele><time>2026-05-02T17:09:59.558Z</time></trkpt><trkpt lat="43.2292196" lon="12.7945892"><ele>542.1666666666667</ele><time>2026-05-02T17:10:00.559Z</time></trkpt><trkpt lat="43.2292759" lon="12.7945158"><ele>538.0</ele><time>2026-05-02T17:10:01.558Z</time></trkpt><trkpt lat="43.2293248" lon="12.7944481"><ele>538.0</ele><time>2026-05-02T17:10:02.558Z</time></trkpt><trkpt lat="43.2293819" lon="12.7943702"><ele>538.0</ele><time>2026-05-02T17:10:03.559Z</time></trkpt><trkpt lat="43.2294339" lon="12.7942949"><ele>532.0</ele><time>2026-05-02T17:10:04.558Z</time></trkpt><trkpt lat="43.2295004" lon="12.7942122"><ele>532.0</ele><time>2026-05-02T17:10:05.559Z</time></trkpt><trkpt lat="43.2295519" lon="12.7941186"><ele>532.0</ele><time>2026-05-02T17:10:06.559Z</time></trkpt><trkpt lat="43.2295943" lon="12.7940051"><ele>532.0</ele><time>2026-05-02T17:10:07.559Z</time></trkpt></trkseg></trk></gpx>